Time;durP1;ratioP1;P1;durP2;ratioP2;P2;SDS_P1;SDS_P2;PMS_P1;PMS_P2;Temp;Humidity;BMP_temperature;BMP_pressure;BME280_temperature;BME280_humidity;BME280_pressure;Samples;Min_cycle;Max_cycle;Signal;HPM_P1;HPM_P2
2023/01/18 00:00:03;;;;;;;103.32;44.75;;;;;;;3.33;68.20;95871.81;5108821;28;20020;-76
2023/01/18 00:02:28;;;;;;;100.28;45.00;;;;;;;3.33;68.09;95874.53;5112410;28;20487;-77
2023/01/18 00:04:53;;;;;;;94.68;44.90;;;;;;;3.35;67.60;95870.38;5112596;28;20099;-76
2023/01/18 00:07:19;;;;;;;96.47;45.45;;;;;;;3.33;68.14;95859.06;5094172;28;20160;-74
2023/01/18 00:09:44;;;;;;;94.10;43.45;;;;;;;3.32;68.42;95865.59;5112371;28;20020;-76
2023/01/18 00:12:09;;;;;;;101.30;44.92;;;;;;;3.30;68.45;95856.19;5112790;28;20593;-76
2023/01/18 00:14:35;;;;;;;101.85;44.67;;;;;;;3.28;68.38;95848.34;5111788;28;20115;-76
2023/01/18 00:17:00;;;;;;;98.18;44.28;;;;;;;3.25;68.04;95860.63;5111712;28;20031;-76
2023/01/18 00:19:25;;;;;;;97.00;43.17;;;;;;;3.25;67.80;95846.28;5110549;28;20091;-75
2023/01/18 00:21:53;;;;;;;94.63;43.42;;;;;;;3.24;68.38;95842.78;5108749;28;20857;-74
2023/01/18 00:24:21;;;;;;;101.68;43.70;;;;;;;3.25;68.30;95849.78;5112654;28;20036;-77
2023/01/18 00:26:47;;;;;;;96.60;42.88;;;;;;;3.26;68.26;95847.91;5113126;28;20481;-77
2023/01/18 00:29:12;;;;;;;93.90;42.25;;;;;;;3.25;68.45;95849.00;5112954;28;20023;-76
2023/01/18 00:31:38;;;;;;;86.95;39.92;;;;;;;3.27;68.84;95852.16;5112237;28;20035;-77
2023/01/18 00:34:04;;;;;;;89.28;39.50;;;;;;;3.26;68.58;95845.19;5113249;28;20398;-77
2023/01/18 00:36:30;;;;;;;77.90;37.90;;;;;;;3.27;69.05;95849.47;5113565;28;20027;-76
2023/01/18 00:38:57;;;;;;;79.43;36.25;;;;;;;3.28;68.30;95842.94;5113581;28;20072;-77
2023/01/18 00:41:22;;;;;;;77.00;36.28;;;;;;;3.27;68.28;95828.59;5111972;28;20089;-76
2023/01/18 00:43:48;;;;;;;75.95;35.83;;;;;;;3.28;68.88;95818.56;5109365;28;20031;-76
2023/01/18 00:46:20;;;;;;;75.68;35.70;;;;;;;3.29;68.74;95806.59;5113008;28;20042;-76
2023/01/18 00:48:47;;;;;;;67.60;33.85;;;;;;;3.30;69.07;95802.78;5111838;28;20050;-76
2023/01/18 00:51:14;;;;;;;73.55;33.33;;;;;;;3.27;68.66;95798.81;5112683;28;20100;-75
2023/01/18 00:53:43;;;;;;;65.63;33.30;;;;;;;3.30;69.21;95796.59;5093710;28;20384;-75
2023/01/18 00:56:11;;;;;;;62.13;30.35;;;;;;;3.27;68.78;95792.56;5097981;27;20031;-76
2023/01/18 00:58:36;;;;;;;67.03;29.85;;;;;;;3.26;69.35;95786.38;5095979;28;20042;-78
2023/01/18 01:01:03;;;;;;;56.35;28.25;;;;;;;3.26;68.92;95775.53;5112438;28;20381;-79
2023/01/18 01:06:42;;;;;;;52.45;26.58;;;;;;;3.24;69.06;95776.97;5112027;28;20065;-78
2023/01/18 01:08:58;;;;;;;55.95;28.30;;;;;;;3.20;69.53;95779.50;5112022;28;20483;-73
2023/01/18 01:11:23;;;;;;;49.92;26.02;;;;;;;3.19;68.72;95777.91;5094110;28;20036;-78
2023/01/18 01:27:29;;;;;;;42.83;21.67;;;;;;;3.20;69.77;95779.50;5108729;28;20042;-76
2023/01/18 01:29:54;;;;;;;45.63;22.88;;;;;;;3.20;69.72;95784.91;5106585;28;20020;-75
2023/01/18 01:32:19;;;;;;;48.60;23.45;;;;;;;3.22;69.58;95785.41;5110616;28;20023;-75
2023/01/18 01:34:45;;;;;;;45.63;23.70;;;;;;;3.22;69.60;95777.28;5108404;28;20047;-75
2023/01/18 01:37:10;;;;;;;47.97;23.55;;;;;;;3.24;69.77;95782.41;5105817;28;20475;-75
2023/01/18 01:39:35;;;;;;;47.28;22.80;;;;;;;3.23;69.17;95780.81;5108946;28;20055;-75
2023/01/18 01:42:01;;;;;;;45.92;22.80;;;;;;;3.23;69.55;95776.16;5110548;28;20476;-76
2023/01/18 01:44:28;;;;;;;56.50;25.08;;;;;;;3.24;69.34;95771.56;5108708;28;20059;-76
2023/01/18 01:46:56;;;;;;;46.25;24.55;;;;;;;3.24;70.25;95771.56;5108895;28;20028;-76
2023/01/18 01:49:31;;;;;;;51.80;25.02;;;;;;;3.24;69.44;95783.19;5110912;28;20053;-76
2023/01/18 01:52:10;;;;;;;51.75;26.88;;;;;;;3.27;70.49;95776.31;5098023;28;20064;-76
2023/01/18 01:54:41;;;;;;;60.22;26.13;;;;;;;3.30;69.81;95785.75;5110758;28;20381;-75
2023/01/18 01:57:29;;;;;;;55.88;25.48;;;;;;;3.26;69.86;95782.88;5110497;28;20501;-76
2023/01/18 02:00:03;;;;;;;53.42;25.00;;;;;;;3.29;70.28;95787.66;5109508;28;20022;-75
2023/01/18 02:02:33;;;;;;;50.55;23.98;;;;;;;3.30;69.65;95793.88;5110645;28;20020;-75
2023/01/18 02:05:01;;;;;;;48.67;24.40;;;;;;;3.32;69.71;95799.78;5110712;28;20060;-75
2023/01/18 02:07:27;;;;;;;46.58;22.63;;;;;;;3.31;69.93;95795.47;5111239;28;20043;-75
2023/01/18 02:09:55;;;;;;;45.30;23.15;;;;;;;3.30;70.10;95802.78;5097697;28;20129;-75
2023/01/18 02:12:20;;;;;;;46.13;23.30;;;;;;;3.33;69.94;95801.38;5091865;28;20031;-75
2023/01/18 02:14:46;;;;;;;48.65;23.58;;;;;;;3.32;69.92;95794.38;5101702;28;20015;-75
2023/01/18 02:17:27;;;;;;;47.35;23.67;;;;;;;3.33;70.66;95790.53;5095872;28;20027;-74
2023/01/18 02:20:18;;;;;;;42.40;22.70;;;;;;;3.32;70.07;95794.38;5108537;28;20015;-73
2023/01/18 02:22:46;;;;;;;48.42;23.13;;;;;;;3.35;70.34;95793.72;5104384;28;20032;-74
2023/01/18 02:25:49;;;;;;;43.67;22.63;;;;;;;3.34;70.26;95792.13;5095425;28;20027;-73
2023/01/18 02:28:19;;;;;;;44.08;21.38;;;;;;;3.35;70.71;95786.38;5090836;28;20080;-73
2023/01/18 02:30:51;;;;;;;42.67;21.13;;;;;;;3.34;70.57;95784.00;5104145;28;20031;-74
2023/01/18 02:33:35;;;;;;;43.97;21.50;;;;;;;3.33;70.60;95772.38;5088535;28;20027;-74
2023/01/18 02:36:02;;;;;;;47.95;24.13;;;;;;;3.35;70.19;95772.84;5096855;28;20024;-73
2023/01/18 02:38:36;;;;;;;48.60;22.40;;;;;;;3.35;70.43;95780.19;5091498;28;20055;-73
2023/01/18 02:41:11;;;;;;;45.88;22.88;;;;;;;3.32;70.39;95780.81;5090202;28;20093;-73
2023/01/18 02:46:34;;;;;;;49.40;23.50;;;;;;;3.30;70.54;95778.41;5094129;28;20452;-73
2023/01/18 02:49:17;;;;;;;56.80;24.70;;;;;;;3.28;70.82;95789.56;5090382;28;20066;-74
2023/01/18 02:51:42;;;;;;;54.05;25.40;;;;;;;3.28;70.51;95789.56;5082956;28;20028;-74
2023/01/18 02:54:11;;;;;;;45.08;22.05;;;;;;;3.27;71.04;95790.69;5100102;28;20029;-74
2023/01/18 02:56:41;;;;;;;41.58;20.75;;;;;;;3.24;70.79;95788.59;5090970;28;20036;-74
2023/01/18 02:59:12;;;;;;;40.45;20.52;;;;;;;3.26;70.77;95791.00;5108612;28;20046;-73
2023/01/18 03:01:47;;;;;;;41.58;21.55;;;;;;;3.25;71.16;95781.28;5100602;28;20032;-73
2023/01/18 03:04:23;;;;;;;49.08;21.90;;;;;;;3.28;71.08;95777.91;5108654;28;20042;-74
2023/01/18 03:07:02;;;;;;;41.45;20.67;;;;;;;3.29;70.74;95784.94;5094358;28;20027;-73
2023/01/18 03:09:29;;;;;;;42.03;20.02;;;;;;;3.30;71.66;95780.34;5112291;28;20028;-73
2023/01/18 03:12:20;;;;;;;33.63;17.60;;;;;;;3.26;70.95;95783.66;5113504;28;20493;-72
2023/01/18 03:15:18;;;;;;;30.67;16.20;;;;;;;3.26;71.68;95785.59;5100642;28;20063;-72
2023/01/18 03:17:56;;;;;;;30.25;16.63;;;;;;;3.26;71.39;95772.06;5061637;28;20040;-72
2023/01/18 03:20:30;;;;;;;29.75;15.30;;;;;;;3.23;71.74;95759.91;5085024;28;20023;-72
2023/01/18 03:23:36;;;;;;;26.38;14.73;;;;;;;3.19;70.99;95758.94;5093365;28;20485;-72
2023/01/18 03:26:04;;;;;;;23.90;13.95;;;;;;;3.16;71.08;95770.41;5067124;28;20115;-71
2023/01/18 03:34:38;;;;;;;29.60;15.23;;;;;;;3.05;70.80;95704.13;5111120;28;20054;-71
2023/01/18 03:37:09;;;;;;;27.17;14.77;;;;;;;2.99;71.38;95676.38;5094281;28;20024;-69
2023/01/18 03:39:43;;;;;;;25.73;14.77;;;;;;;2.94;70.96;95650.28;5095085;28;20028;-71
2023/01/18 03:42:13;;;;;;;27.08;14.73;;;;;;;2.88;71.57;95642.59;5099012;28;20028;-71
2023/01/18 03:44:49;;;;;;;29.00;14.90;;;;;;;2.81;70.82;95640.38;5101088;28;20384;-71
2023/01/18 03:47:15;;;;;;;27.23;15.60;;;;;;;2.76;70.96;95641.31;5092961;28;20024;-71
2023/01/18 03:49:40;;;;;;;27.17;15.35;;;;;;;2.72;71.78;95632.22;5094206;28;20031;-70
2023/01/18 03:52:16;;;;;;;31.67;16.35;;;;;;;2.67;70.81;95618.84;5099425;28;20080;-71
2023/01/18 03:54:56;;;;;;;30.83;16.45;;;;;;;2.63;71.09;95620.59;5105283;28;20035;-71
2023/01/18 03:57:51;;;;;;;30.88;17.38;;;;;;;2.56;71.00;95652.72;5100898;27;20091;-70
2023/01/18 04:00:17;;;;;;;29.90;16.38;;;;;;;2.52;71.59;95688.50;5076843;28;20040;-71
2023/01/18 04:02:43;;;;;;;29.25;16.80;;;;;;;2.48;71.80;95692.94;5107866;28;20070;-71
2023/01/18 04:05:09;;;;;;;28.80;16.38;;;;;;;2.47;71.29;95695.97;5093659;28;20032;-71
2023/01/18 04:07:35;;;;;;;30.10;17.67;;;;;;;2.47;71.71;95696.75;5102044;28;20593;-70
2023/01/18 04:10:00;;;;;;;28.90;16.60;;;;;;;2.46;71.80;95708.69;5092991;28;20051;-71
2023/01/18 04:12:26;;;;;;;32.42;16.90;;;;;;;2.46;71.97;95711.38;5092036;28;20504;-70
2023/01/18 04:14:52;;;;;;;28.23;17.30;;;;;;;2.46;72.26;95711.38;5093031;28;20024;-70
2023/01/18 04:17:17;;;;;;;29.75;16.92;;;;;;;2.48;71.47;95709.16;5112803;28;20377;-71
2023/01/18 04:19:46;;;;;;;27.85;17.30;;;;;;;2.51;72.17;95710.47;5105241;28;20028;-70
2023/01/18 04:22:12;;;;;;;32.47;17.75;;;;;;;2.52;72.02;95703.97;5094342;28;20024;-71
2023/01/18 04:24:37;;;;;;;34.03;19.35;;;;;;;2.53;72.25;95695.50;5092497;28;20434;-70
2023/01/18 04:27:03;;;;;;;34.75;19.80;;;;;;;2.54;72.01;95674.69;5093817;28;20602;-71
2023/01/18 04:29:29;;;;;;;35.97;19.15;;;;;;;2.56;72.13;95679.75;5103205;28;20020;-71
2023/01/18 04:31:54;;;;;;;35.92;18.42;;;;;;;2.56;72.24;95671.66;5094012;28;20028;-71
2023/01/18 04:34:22;;;;;;;34.45;19.67;;;;;;;2.58;72.60;95666.72;5112183;28;20043;-70
2023/01/18 04:36:49;;;;;;;33.10;19.60;;;;;;;2.57;72.09;95660.53;5112200;28;20023;-71
2023/01/18 04:39:14;;;;;;;39.33;20.70;;;;;;;2.56;71.59;95674.34;5103804;28;20023;-71
2023/01/18 04:41:40;;;;;;;29.73;18.73;;;;;;;2.50;72.46;95690.72;5092236;28;20022;-70
2023/01/18 04:44:05;;;;;;;30.35;18.05;;;;;;;2.50;71.67;95690.72;5092032;28;20031;-71
2023/01/18 04:46:30;;;;;;;33.13;18.02;;;;;;;2.50;71.91;95696.13;5097925;28;20023;-70
2023/01/18 04:48:56;;;;;;;31.98;18.50;;;;;;;2.52;72.47;95687.72;5111832;28;20038;-70
2023/01/18 04:51:22;;;;;;;32.17;18.00;;;;;;;2.54;71.81;95690.91;5112089;28;20034;-71
2023/01/18 04:53:48;;;;;;;32.15;18.38;;;;;;;2.56;72.78;95690.59;5107498;28;20114;-71
2023/01/18 04:56:15;;;;;;;34.30;19.13;;;;;;;2.56;72.30;95707.63;5106470;28;20115;-70
2023/01/18 04:58:40;;;;;;;35.90;19.92;;;;;;;2.57;72.14;95698.41;5103197;28;20042;-71
2023/01/18 05:01:07;;;;;;;36.45;19.80;;;;;;;2.58;71.87;95696.50;5092034;28;20024;-71
2023/01/18 05:03:36;;;;;;;42.30;22.15;;;;;;;2.62;72.62;95697.47;5092055;28;20048;-71
2023/01/18 05:06:04;;;;;;;43.78;22.38;;;;;;;2.63;72.52;95704.47;5093783;28;20125;-70
2023/01/18 05:08:30;;;;;;;41.70;22.33;;;;;;;2.67;71.94;95700.03;5106094;28;20044;-71
2023/01/18 05:11:00;;;;;;;48.42;27.50;;;;;;;2.65;72.09;95691.44;5100938;28;20055;-71
2023/01/18 05:13:26;;;;;;;51.92;30.25;;;;;;;2.64;72.71;95689.81;5093166;28;20027;-70
2023/01/18 05:15:51;;;;;;;45.88;26.08;;;;;;;2.64;72.65;95687.94;5114631;27;20089;-71
2023/01/18 05:18:16;;;;;;;50.70;27.15;;;;;;;2.63;72.69;95683.63;5107684;28;20035;-71
2023/01/18 05:20:42;;;;;;;44.65;25.40;;;;;;;2.61;72.79;95685.03;5112352;28;20062;-71
2023/01/18 05:23:09;;;;;;;44.17;25.23;;;;;;;2.59;72.21;95695.38;5101023;28;20430;-71
2023/01/18 05:25:35;;;;;;;50.63;26.48;;;;;;;2.58;72.87;95694.59;5101804;28;20046;-71
2023/01/18 05:28:00;;;;;;;43.33;23.42;;;;;;;2.59;72.75;95689.97;5108477;28;20465;-70
2023/01/18 05:30:26;;;;;;;43.40;23.75;;;;;;;2.58;72.16;95693.78;5093088;28;20039;-71
2023/01/18 05:32:51;;;;;;;43.55;23.77;;;;;;;2.56;72.81;95696.00;5091895;28;20409;-71
2023/01/18 05:35:16;;;;;;;42.30;23.27;;;;;;;2.52;73.05;95699.31;5094139;28;20031;-70
2023/01/18 05:37:42;;;;;;;40.88;22.52;;;;;;;2.53;72.00;95716.38;5106140;28;20040;-70
2023/01/18 05:40:09;;;;;;;50.20;30.05;;;;;;;2.53;72.59;95716.38;5107538;28;20035;-71
2023/01/18 05:42:34;;;;;;;43.92;24.88;;;;;;;2.52;72.97;95709.38;5100598;28;20035;-71
2023/01/18 05:45:00;;;;;;;40.50;23.52;;;;;;;2.55;72.42;95708.75;5101131;28;20396;-71
2023/01/18 05:47:25;;;;;;;38.58;22.50;;;;;;;2.58;72.43;95707.31;5111877;28;20072;-70
2023/01/18 05:49:50;;;;;;;44.53;23.85;;;;;;;2.60;73.16;95703.19;5107743;28;20050;-70
2023/01/18 05:52:16;;;;;;;42.13;23.65;;;;;;;2.61;73.30;95690.44;5094613;28;20032;-71
2023/01/18 05:54:41;;;;;;;47.38;25.27;;;;;;;2.65;72.67;95680.59;5092463;28;20485;-71
2023/01/18 05:57:07;;;;;;;47.80;24.10;;;;;;;2.64;72.61;95679.81;5108357;28;20035;-70
2023/01/18 05:59:32;;;;;;;46.38;22.42;;;;;;;2.66;73.31;95679.50;5104920;28;20032;-71
2023/01/18 06:01:58;;;;;;;38.85;21.58;;;;;;;2.67;73.07;95683.78;5103714;28;20133;-70
2023/01/18 06:04:23;;;;;;;34.65;20.55;;;;;;;2.68;72.71;95680.75;5105605;28;20031;-70
2023/01/18 06:06:48;;;;;;;42.85;22.08;;;;;;;2.71;73.48;95678.53;5091997;28;20029;-71
2023/01/18 06:09:14;;;;;;;40.28;20.77;;;;;;;2.71;73.43;95676.66;5087828;28;20051;-71
2023/01/18 06:11:39;;;;;;;39.72;22.75;;;;;;;2.73;73.07;95687.97;5110114;28;20164;-70
2023/01/18 06:14:05;;;;;;;41.78;24.73;;;;;;;2.75;72.76;95696.56;5093123;28;20074;-70
2023/01/18 06:16:30;;;;;;;39.90;22.42;;;;;;;2.76;72.60;95697.34;5111318;28;20077;-70
2023/01/18 06:18:55;;;;;;;39.95;22.30;;;;;;;2.80;73.21;95714.56;5108456;28;20389;-71
2023/01/18 06:21:21;;;;;;;50.20;27.15;;;;;;;2.81;73.03;95718.84;5111054;28;20076;-71
2023/01/18 06:23:46;;;;;;;51.47;28.38;;;;;;;2.82;72.90;95734.81;5093127;28;20088;-71
2023/01/18 06:26:12;;;;;;;56.08;30.40;;;;;;;2.82;73.45;95728.56;5110346;28;20180;-70
2023/01/18 06:28:37;;;;;;;56.55;32.35;;;;;;;2.85;73.41;95725.25;5110013;28;20032;-70
2023/01/18 06:31:04;;;;;;;47.80;28.17;;;;;;;2.86;73.27;95724.13;5107012;28;20036;-70
2023/01/18 06:33:30;;;;;;;40.13;23.52;;;;;;;2.86;72.98;95723.31;5113214;28;20038;-71
2023/01/18 06:35:55;;;;;;;37.72;22.85;;;;;;;2.89;72.56;95730.81;5113418;28;20023;-72
2023/01/18 06:38:20;;;;;;;33.38;20.27;;;;;;;2.90;72.92;95713.47;5111064;28;20460;-71
2023/01/18 06:40:46;;;;;;;39.78;22.92;;;;;;;2.90;73.32;95724.28;5095593;28;20036;-71
2023/01/18 06:43:12;;;;;;;39.22;22.52;;;;;;;2.90;72.72;95718.88;5115279;28;20027;-71
2023/01/18 06:45:38;;;;;;;38.47;20.83;;;;;;;2.91;72.92;95731.31;5103105;28;20032;-70
2023/01/18 06:48:03;;;;;;;30.17;18.13;;;;;;;2.92;73.62;95727.50;5106968;28;20028;-70
2023/01/18 06:50:29;;;;;;;30.95;18.58;;;;;;;2.90;72.93;95724.28;5115434;28;20035;-70
2023/01/18 06:52:54;;;;;;;35.55;20.50;;;;;;;2.93;73.21;95718.25;5114913;28;20027;-70
2023/01/18 06:55:20;;;;;;;36.85;22.17;;;;;;;2.94;73.57;95723.38;5113684;28;20050;-71
2023/01/18 06:57:46;;;;;;;34.95;23.20;;;;;;;2.95;73.08;95719.56;5113816;28;20106;-72
2023/01/18 07:00:13;;;;;;;37.25;23.33;;;;;;;2.98;73.56;95724.34;5110644;28;20112;-70
2023/01/18 07:02:38;;;;;;;39.35;21.80;;;;;;;2.95;73.43;95719.56;5113285;28;20027;-71
2023/01/18 07:05:04;;;;;;;35.08;21.90;;;;;;;2.97;72.99;95727.34;5113889;28;20073;-72
2023/01/18 07:07:30;;;;;;;32.05;19.38;;;;;;;2.98;72.83;95732.47;5114200;28;20139;-70
2023/01/18 07:09:55;;;;;;;32.88;18.65;;;;;;;2.98;72.97;95726.22;5110114;28;20416;-71
2023/01/18 07:12:21;;;;;;;32.00;17.52;;;;;;;2.98;73.70;95737.88;5113005;28;20015;-70
2023/01/18 07:14:47;;;;;;;26.85;15.85;;;;;;;2.99;72.79;95738.66;5111797;28;20068;-72
2023/01/18 07:17:13;;;;;;;30.20;16.63;;;;;;;2.96;73.11;95740.09;5093308;28;20019;-71
2023/01/18 07:19:38;;;;;;;28.88;15.90;;;;;;;2.97;72.85;95740.88;5112123;28;20070;-72
2023/01/18 07:22:04;;;;;;;29.48;16.60;;;;;;;2.97;73.68;95755.22;5093928;28;20040;-72
2023/01/18 07:24:29;;;;;;;26.50;15.50;;;;;;;3.00;73.09;95753.78;5112628;28;20437;-72
2023/01/18 07:26:55;;;;;;;28.33;17.33;;;;;;;3.00;73.38;95748.38;5110518;27;20024;-71
2023/01/18 07:29:21;;;;;;;29.77;18.42;;;;;;;3.00;72.93;95747.59;5110654;27;20088;-72
2023/01/18 07:31:46;;;;;;;27.52;17.38;;;;;;;3.01;72.90;95754.59;5111712;28;20526;-71
2023/01/18 07:34:13;;;;;;;32.63;18.90;;;;;;;3.03;73.56;95755.09;5112553;28;20027;-70
2023/01/18 07:36:40;;;;;;;31.48;19.23;;;;;;;3.05;73.46;95750.16;5110149;28;20024;-72
2023/01/18 07:39:09;;;;;;;28.58;17.80;;;;;;;3.06;73.88;95752.53;5112065;28;20040;-71
2023/01/18 07:41:35;;;;;;;34.65;18.95;;;;;;;3.08;73.15;95746.81;5112675;28;20510;-72
2023/01/18 07:44:00;;;;;;;39.58;20.63;;;;;;;3.10;73.88;95750.81;5112638;28;20023;-72
2023/01/18 07:46:26;;;;;;;43.67;22.40;;;;;;;3.12;74.05;95745.06;5112487;28;20027;-72
2023/01/18 07:48:52;;;;;;;57.63;26.40;;;;;;;3.15;73.32;95741.72;5111940;28;20068;-71
2023/01/18 07:51:19;;;;;;;33.25;17.08;;;;;;;3.15;74.01;95733.59;5107973;28;20084;-71
2023/01/18 07:53:44;;;;;;;27.38;15.68;;;;;;;3.16;73.42;95742.53;5108508;28;20118;-71
2023/01/18 07:56:13;;;;;;;27.05;15.93;;;;;;;3.13;73.22;95760.19;5108569;28;20529;-72
2023/01/18 07:58:39;;;;;;;25.90;15.20;;;;;;;3.12;73.37;95762.13;5110701;28;20399;-72
2023/01/18 08:01:08;;;;;;;23.92;15.82;;;;;;;3.14;73.65;95783.47;5109706;28;20106;-71
2023/01/18 08:03:35;;;;;;;49.92;29.95;;;;;;;3.13;73.88;95779.16;5110850;28;20020;-72
2023/01/18 08:06:01;;;;;;;46.67;27.02;;;;;;;3.15;73.96;95785.06;5111456;28;20374;-75
2023/01/18 08:08:28;;;;;;;37.22;21.98;;;;;;;3.16;73.73;95783.94;5111332;28;20108;-73
2023/01/18 08:10:55;;;;;;;28.20;17.48;;;;;;;3.15;74.18;95768.81;5111617;28;20066;-72
2023/01/18 08:13:20;;;;;;;32.97;19.15;;;;;;;3.19;73.89;95763.59;5111589;28;20366;-73
2023/01/18 08:15:46;;;;;;;30.27;16.88;;;;;;;3.20;73.69;95748.94;5111473;28;20034;-73
2023/01/18 08:18:13;;;;;;;23.63;14.40;;;;;;;3.22;73.93;95747.47;5110996;28;20077;-71
2023/01/18 08:20:41;;;;;;;26.77;13.90;;;;;;;3.22;73.94;95735.88;5109787;27;20027;-73
2023/01/18 08:23:06;;;;;;;22.17;12.93;;;;;;;3.23;74.03;95751.78;5107920;28;20058;-70
2023/01/18 08:25:32;;;;;;;23.02;13.50;;;;;;;3.25;73.64;95756.91;5109959;28;20032;-73
2023/01/18 08:28:01;;;;;;;25.48;14.60;;;;;;;3.27;73.98;95752.75;5110242;28;20153;-71
2023/01/18 08:30:33;;;;;;;27.42;13.93;;;;;;;3.31;73.71;95762.97;5112080;28;20075;-73
2023/01/18 08:33:00;;;;;;;29.30;14.30;;;;;;;3.31;73.83;95777.28;5093788;28;20035;-73
2023/01/18 08:35:30;;;;;;;30.55;17.08;;;;;;;3.30;73.70;95791.16;5111407;28;20027;-71
2023/01/18 08:37:58;;;;;;;27.40;15.45;;;;;;;3.29;73.97;95784.94;5107066;28;20073;-76
2023/01/18 08:40:24;;;;;;;30.05;15.80;;;;;;;3.26;73.61;95775.53;5111231;28;20035;-73
2023/01/18 08:42:54;;;;;;;33.53;17.38;;;;;;;3.30;74.08;95781.13;5108232;28;20490;-71
2023/01/18 08:45:19;;;;;;;31.35;16.80;;;;;;;3.29;73.57;95784.94;5110095;28;20024;-74
2023/01/18 08:47:44;;;;;;;28.73;15.85;;;;;;;3.29;73.37;95774.09;5110223;28;20034;-76
2023/01/18 08:50:10;;;;;;;28.88;14.13;;;;;;;3.26;73.85;95780.97;5109309;28;20032;-73
2023/01/18 08:52:35;;;;;;;22.92;13.73;;;;;;;3.25;74.01;95784.78;5101792;28;20036;-73
2023/01/18 08:55:02;;;;;;;27.85;16.08;;;;;;;3.25;73.99;95781.28;5105079;28;20042;-72
2023/01/18 08:57:28;;;;;;;43.22;20.05;;;;;;;3.21;73.58;95791.16;5108650;28;20036;-73
2023/01/18 08:59:55;;;;;;;33.15;16.27;;;;;;;3.19;73.17;95802.28;5112449;28;20073;-74
2023/01/18 09:02:20;;;;;;;33.97;17.75;;;;;;;3.20;73.76;95816.63;5111066;28;20100;-74
2023/01/18 09:04:47;;;;;;;34.65;17.17;;;;;;;3.17;73.64;95818.03;5110956;28;20031;-72
2023/01/18 09:07:13;;;;;;;34.60;19.00;;;;;;;3.16;74.00;95819.16;5111487;28;20032;-72
2023/01/18 09:09:39;;;;;;;32.15;17.40;;;;;;;3.16;73.57;95832.69;5111548;28;20023;-72
2023/01/18 09:12:04;;;;;;;33.20;17.73;;;;;;;3.15;73.40;95833.81;5111587;28;20111;-72
2023/01/18 09:14:29;;;;;;;30.85;17.48;;;;;;;3.12;73.96;95827.13;5111452;28;20438;-73
2023/01/18 09:16:55;;;;;;;34.15;18.00;;;;;;;3.10;73.63;95836.66;5109311;28;20495;-73
2023/01/18 09:19:20;;;;;;;32.00;18.23;;;;;;;3.07;73.46;95837.28;5109299;28;20114;-70
2023/01/18 09:21:47;;;;;;;32.28;17.90;;;;;;;3.02;73.31;95842.84;5111241;28;20032;-69
2023/01/18 09:24:13;;;;;;;30.52;16.85;;;;;;;2.97;73.78;95843.78;5112391;28;20077;-71
2023/01/18 09:26:39;;;;;;;27.02;15.68;;;;;;;2.93;73.23;95848.22;5113219;28;20024;-72
2023/01/18 09:29:05;;;;;;;29.60;16.02;;;;;;;2.87;73.72;95842.13;5111949;28;20051;-72
2023/01/18 09:31:30;;;;;;;28.02;16.05;;;;;;;2.83;73.85;95843.88;5107151;28;20114;-72
2023/01/18 09:33:57;;;;;;;27.40;15.60;;;;;;;2.79;73.35;95848.28;5111573;28;20457;-71
2023/01/18 09:36:25;;;;;;;25.08;14.07;;;;;;;2.78;73.84;95847.50;5111863;28;20031;-71
2023/01/18 09:38:51;;;;;;;24.40;14.75;;;;;;;2.78;73.84;95846.69;5107686;28;20074;-72
2023/01/18 09:41:41;;;;;;;21.98;12.77;;;;;;;2.75;72.93;95844.59;5111043;28;20100;-72
2023/01/18 09:44:39;;;;;;;23.38;13.68;;;;;;;2.73;73.02;95849.53;5111107;28;20027;-73
2023/01/18 09:47:08;;;;;;;25.95;13.93;;;;;;;2.76;73.48;95848.91;5111704;28;20034;-72
2023/01/18 09:49:42;;;;;;;30.17;17.15;;;;;;;2.76;73.26;95857.84;5111419;28;20034;-72
2023/01/18 09:52:22;;;;;;;26.77;16.02;;;;;;;2.75;73.89;95871.69;5111417;28;20115;-71
2023/01/18 09:55:18;;;;;;;33.22;18.50;;;;;;;2.76;73.77;95878.69;5111835;28;20066;-72
2023/01/18 09:58:02;;;;;;;39.00;22.00;;;;;;;2.80;73.29;95875.06;5093564;28;20423;-72
2023/01/18 10:00:32;;;;;;;41.75;22.73;;;;;;;2.84;74.01;95888.78;5111642;28;20089;-73
2023/01/18 10:03:01;;;;;;;42.80;21.85;;;;;;;2.88;73.84;95899.78;5111877;28;20069;-73
2023/01/18 10:05:31;;;;;;;41.95;22.85;;;;;;;2.86;73.21;95905.50;5110101;28;20023;-72
2023/01/18 10:08:06;;;;;;;38.20;20.27;;;;;;;2.86;73.96;95907.41;5111204;28;20039;-71
2023/01/18 10:10:56;;;;;;;38.33;19.25;;;;;;;2.81;73.56;95916.47;5091854;28;20031;-72
2023/01/18 10:13:21;;;;;;;;;;;;;;;2.78;73.60;95923.31;5110056;28;20076;-72
2023/01/18 10:15:47;;;;;;;39.50;18.55;;;;;;;2.80;73.70;95920.28;5115354;28;19955;-72
2023/01/18 10:18:14;;;;;;;38.40;19.27;;;;;;;2.79;73.18;95918.69;5092564;28;20054;-72
2023/01/18 10:21:00;;;;;;;32.30;17.10;;;;;;;2.83;73.94;95919.66;5114960;28;20031;-73
2023/01/18 10:23:29;;;;;;;37.40;19.63;;;;;;;2.87;74.18;95926.06;5108795;28;20080;-74
2023/01/18 10:26:00;;;;;;;37.22;19.83;;;;;;;2.90;74.30;95924.63;5114756;28;20030;-74
2023/01/18 10:28:41;;;;;;;40.00;19.63;;;;;;;2.89;74.17;95928.44;5096540;28;20084;-74
2023/01/18 10:31:15;;;;;;;35.88;19.45;;;;;;;2.87;73.73;95928.75;5110559;28;20051;-76
2023/01/18 10:33:42;;;;;;;36.47;19.48;;;;;;;2.84;74.20;95940.22;5113165;28;20102;-74
2023/01/18 10:36:42;;;;;;;35.75;18.42;;;;;;;2.79;73.99;95948.44;5112864;28;20028;-74
2023/01/18 10:39:49;;;;;;;33.17;16.70;;;;;;;2.78;73.82;95960.38;5056759;28;20080;-74
2023/01/18 10:42:21;;;;;;;33.75;19.60;;;;;;;2.76;74.08;95966.13;5099423;28;20597;-74
2023/01/18 10:44:46;;;;;;;31.15;17.42;;;;;;;2.74;74.69;95970.22;5110261;28;20048;-75
2023/01/18 10:47:16;;;;;;;36.60;19.88;;;;;;;2.73;74.47;95974.03;5112580;28;20228;-74
2023/01/18 10:49:44;;;;;;;40.07;20.87;;;;;;;2.68;73.88;95974.97;5113292;28;20106;-75
2023/01/18 10:52:29;;;;;;;38.97;20.50;;;;;;;2.64;74.69;95968.56;5094753;28;20316;-74
2023/01/18 10:55:00;;;;;;;40.88;20.85;;;;;;;2.61;74.46;95972.69;5113545;28;20106;-74
2023/01/18 10:57:30;;;;;;;42.28;21.48;;;;;;;2.57;74.42;95965.47;5113363;28;20065;-75
2023/01/18 10:59:56;;;;;;;45.20;22.05;;;;;;;2.56;74.89;95969.28;5111834;28;20095;-74
2023/01/18 11:02:26;;;;;;;43.63;21.30;;;;;;;2.53;74.47;95976.13;5094843;28;20016;-74
2023/01/18 11:04:57;;;;;;;44.15;22.00;;;;;;;2.49;74.88;95973.22;5113199;28;20049;-75
2023/01/18 11:07:25;;;;;;;41.42;21.02;;;;;;;2.52;74.68;95974.53;5112203;28;20052;-74
2023/01/18 11:09:58;;;;;;;42.67;21.95;;;;;;;2.53;74.54;95973.41;5094483;28;20031;-74
2023/01/18 11:12:32;;;;;;;40.17;21.15;;;;;;;2.53;74.94;95971.50;5112156;28;20488;-74
2023/01/18 11:15:18;;;;;;;39.80;21.63;;;;;;;2.57;75.09;95971.69;5112778;28;20031;-75
2023/01/18 11:17:53;;;;;;;42.47;22.58;;;;;;;2.63;74.47;95975.91;5110766;28;20027;-75
2023/01/18 11:20:46;;;;;;;45.03;22.33;;;;;;;2.66;74.42;95980.66;5112558;28;20039;-76
2023/01/18 11:23:18;;;;;;;43.95;22.70;;;;;;;2.70;74.62;95988.19;5112280;28;20411;-74
2023/01/18 11:26:21;;;;;;;43.55;21.13;;;;;;;2.69;74.44;96000.94;5109268;28;20024;-75
2023/01/18 11:28:53;;;;;;;47.35;23.30;;;;;;;2.70;75.15;96002.53;5109941;28;20081;-75
2023/01/18 11:31:22;;;;;;;47.83;23.50;;;;;;;2.70;75.29;95996.28;5112254;28;20015;-75
2023/01/18 11:33:51;;;;;;;45.33;22.33;;;;;;;2.65;75.24;95995.31;5112406;28;20106;-74
2023/01/18 11:36:19;;;;;;;49.10;23.50;;;;;;;2.61;75.00;96010.56;5111885;28;20719;-74
2023/01/18 11:38:45;;;;;;;49.00;23.48;;;;;;;2.56;75.11;96004.47;5112270;28;20072;-74
2023/01/18 11:41:22;;;;;;;45.42;21.83;;;;;;;2.52;74.95;96005.06;5112122;28;20490;-74
2023/01/18 11:43:59;;;;;;;44.47;22.35;;;;;;;2.54;74.94;96010.19;5112549;28;20019;-75
2023/01/18 11:46:39;;;;;;;48.33;22.63;;;;;;;2.55;75.96;96017.19;5112168;28;20159;-74
2023/01/18 11:49:41;;;;;;;51.65;24.42;;;;;;;2.57;75.99;96022.28;5111970;28;20090;-73
2023/01/18 11:52:29;;;;;;;44.03;20.85;;;;;;;2.55;75.49;96025.31;5110932;28;20025;-75
2023/01/18 11:54:59;;;;;;;43.97;20.42;;;;;;;2.49;75.90;96026.53;5107867;28;20465;-74
2023/01/18 11:57:26;;;;;;;;;;;;;;;2.49;75.82;96030.03;5109641;28;21912;-75
2023/01/18 11:59:53;;;;;;;38.33;18.38;;;;;;;2.52;75.98;96040.25;5110615;28;19916;-75
2023/01/18 12:02:30;;;;;;;36.55;18.73;;;;;;;2.49;76.05;96045.47;5111555;28;20090;-76